createdAt,value
2022-08-20T00:02:16.477Z,19.16
2022-08-20T00:04:45.138Z,19.61
2022-08-20T00:07:13.615Z,19.61
2022-08-20T00:09:42.908Z,19.61
2022-08-20T00:12:14.110Z,19.53
2022-08-20T00:14:42.289Z,18.94
2022-08-20T00:17:10.565Z,19.06
2022-08-20T00:19:38.557Z,18.98
2022-08-20T00:22:06.828Z,19.26
2022-08-20T00:24:35.106Z,19.22
2022-08-20T00:27:03.534Z,19.23
2022-08-20T00:29:33.224Z,19.26
2022-08-20T00:32:01.481Z,19.29
2022-08-20T00:34:29.608Z,19.30
2022-08-20T00:36:57.661Z,19.40
2022-08-20T00:39:25.613Z,19.37
2022-08-20T00:41:53.616Z,19.30
2022-08-20T00:44:23.760Z,19.35
2022-08-20T00:46:53.853Z,19.48
2022-08-20T00:49:24.901Z,19.28
2022-08-20T00:51:58.618Z,17.03
2022-08-20T00:54:31.264Z,19.29
2022-08-20T00:57:03.826Z,19.28
2022-08-20T00:59:34.592Z,18.89
2022-08-20T01:02:05.903Z,19.17
2022-08-20T01:04:36.379Z,19.12
2022-08-20T01:07:07.291Z,19.01
2022-08-20T01:09:57.542Z,18.77
2022-08-20T01:12:25.138Z,18.80
2022-08-20T01:14:53.253Z,18.59
2022-08-20T01:17:25.410Z,18.87
2022-08-20T01:19:56.834Z,18.63
2022-08-20T01:22:51.121Z,18.33
2022-08-20T01:25:26.870Z,18.37
2022-08-20T01:27:57.733Z,18.85
2022-08-20T01:30:28.551Z,18.52
2022-08-20T01:32:56.629Z,18.17
2022-08-20T01:35:27.149Z,18.79
2022-08-20T01:37:55.286Z,18.58
2022-08-20T01:40:48.837Z,18.71
2022-08-20T01:43:18.218Z,18.74
2022-08-20T01:45:46.299Z,18.43
2022-08-20T01:48:18.282Z,18.80
2022-08-20T01:50:55.427Z,18.84
2022-08-20T01:53:29.652Z,18.85
2022-08-20T01:55:57.669Z,18.94
2022-08-20T01:58:29.560Z,18.96
2022-08-20T02:00:57.766Z,18.95
2022-08-20T02:03:26.344Z,18.41
2022-08-20T02:05:54.517Z,18.72
2022-08-20T02:08:22.451Z,18.66
2022-08-20T02:10:50.779Z,18.63
2022-08-20T02:13:19.076Z,18.79
2022-08-20T02:15:48.375Z,18.91
2022-08-20T02:18:17.266Z,18.96
2022-08-20T02:20:46.035Z,18.99
2022-08-20T02:23:15.623Z,18.95
2022-08-20T02:25:47.287Z,19.15
2022-08-20T02:28:18.139Z,18.97
2022-08-20T02:30:50.015Z,19.14
2022-08-20T02:33:20.350Z,19.11
2022-08-20T02:35:56.447Z,19.02
2022-08-20T02:38:25.102Z,18.87
2022-08-20T02:40:53.613Z,19.12
2022-08-20T02:43:21.617Z,19.03
2022-08-20T02:45:51.496Z,18.94
2022-08-20T02:48:22.922Z,18.85
2022-08-20T02:50:53.566Z,19.11
2022-08-20T02:53:22.012Z,19.19
2022-08-20T02:55:50.476Z,19.19
2022-08-20T02:58:19.080Z,18.87
2022-08-20T03:00:47.640Z,19.12
2022-08-20T03:03:20.339Z,19.15
2022-08-20T03:05:48.250Z,19.04
2022-08-20T03:08:17.500Z,19.08
2022-08-20T03:10:48.158Z,19.03
2022-08-20T03:13:17.360Z,18.96
2022-08-20T03:15:48.475Z,18.91
2022-08-20T03:18:20.258Z,18.88
2022-08-20T03:20:51.392Z,18.95
2022-08-20T03:23:22.449Z,18.91
2022-08-20T03:25:50.425Z,19.06
2022-08-20T03:28:19.486Z,19.16
2022-08-20T03:30:47.702Z,19.20
2022-08-20T03:33:17.284Z,19.20
2022-08-20T03:35:45.350Z,19.34
2022-08-20T03:38:16.487Z,19.37
2022-08-20T03:40:45.485Z,19.31
2022-08-20T03:43:13.796Z,19.32
2022-08-20T03:45:44.513Z,19.34
2022-08-20T03:48:14.620Z,19.06
2022-08-20T03:50:44.370Z,19.46
2022-08-20T03:53:14.561Z,19.45
2022-08-20T03:55:46.629Z,19.20
2022-08-20T03:58:35.423Z,19.33
2022-08-20T04:01:07.027Z,19.36
2022-08-20T04:03:35.604Z,19.36
2022-08-20T04:06:05.288Z,19.42
2022-08-20T04:08:33.217Z,19.49
2022-08-20T04:11:01.237Z,19.42
2022-08-20T04:13:31.200Z,19.43
2022-08-20T04:16:03.666Z,18.82
2022-08-20T04:18:32.456Z,19.46
2022-08-20T04:21:00.423Z,19.62
2022-08-20T04:23:30.107Z,19.39
2022-08-20T04:25:58.532Z,19.48
2022-08-20T04:28:28.536Z,19.56
2022-08-20T04:30:57.745Z,19.47
2022-08-20T04:33:34.234Z,19.58
2022-08-20T04:36:06.086Z,19.83
2022-08-20T04:38:48.161Z,19.83
2022-08-20T04:41:22.853Z,19.77
2022-08-20T04:43:54.365Z,19.62
2022-08-20T04:46:25.853Z,19.80
2022-08-20T04:48:54.355Z,19.71
2022-08-20T04:51:24.427Z,19.78
2022-08-20T04:53:56.337Z,19.90
2022-08-20T04:56:26.544Z,19.81
2022-08-20T04:58:56.816Z,19.81
2022-08-20T05:01:26.213Z,19.71
2022-08-20T05:03:55.695Z,19.55
2022-08-20T05:06:25.412Z,19.81
2022-08-20T05:08:55.893Z,19.83
2022-08-20T05:11:35.884Z,19.86
2022-08-20T05:14:08.212Z,19.93
2022-08-20T05:16:39.033Z,19.86
2022-08-20T05:19:09.027Z,19.88
2022-08-20T05:21:37.284Z,19.68
2022-08-20T05:24:07.702Z,19.85
2022-08-20T05:26:35.796Z,19.83
2022-08-20T05:29:05.176Z,19.52
2022-08-20T05:31:35.061Z,19.86
2022-08-20T05:34:04.046Z,19.80
2022-08-20T05:36:32.062Z,19.59
2022-08-20T05:39:00.181Z,19.80
2022-08-20T05:41:30.599Z,19.70
2022-08-20T05:44:01.800Z,19.68
2022-08-20T05:46:31.379Z,19.83
2022-08-20T05:49:01.562Z,19.90
2022-08-20T05:51:30.634Z,19.94
2022-08-20T05:53:59.699Z,20.08
2022-08-20T05:56:31.225Z,20.09
2022-08-20T05:59:01.600Z,20.00
2022-08-20T06:01:29.665Z,19.95
2022-08-20T06:04:15.067Z,19.95
2022-08-20T06:06:45.550Z,19.78
2022-08-20T06:09:15.905Z,19.81
2022-08-20T06:11:45.202Z,19.79
2022-08-20T06:14:13.382Z,19.72
2022-08-20T06:16:56.327Z,19.73
2022-08-20T06:19:26.548Z,19.76
2022-08-20T06:21:56.434Z,19.26
2022-08-20T06:24:24.919Z,19.66
2022-08-20T06:26:58.635Z,19.60
2022-08-20T06:29:27.249Z,19.08
2022-08-20T06:31:55.710Z,19.39
2022-08-20T06:34:28.290Z,19.28
2022-08-20T06:36:59.311Z,19.71
2022-08-20T06:39:29.195Z,19.81
2022-08-20T06:41:59.512Z,19.81
2022-08-20T06:44:28.440Z,19.61
2022-08-20T06:47:00.877Z,19.12
2022-08-20T06:49:28.829Z,19.94
2022-08-20T06:52:03.523Z,20.09
2022-08-20T06:54:32.686Z,20.25
2022-08-20T06:57:02.080Z,20.17
2022-08-20T06:59:29.988Z,20.37
2022-08-20T07:01:57.991Z,20.07
2022-08-20T07:04:26.877Z,20.54
2022-08-20T07:06:55.265Z,20.71
2022-08-20T07:09:23.518Z,20.85
2022-08-20T07:11:52.335Z,20.92
2022-08-20T07:14:22.238Z,20.89
2022-08-20T07:16:50.597Z,20.98
2022-08-20T07:19:18.841Z,21.08
2022-08-20T07:21:47.570Z,21.14
2022-08-20T07:24:15.513Z,21.03
2022-08-20T07:26:43.734Z,21.11
2022-08-20T07:29:12.074Z,21.16
2022-08-20T07:31:59.192Z,21.18
2022-08-20T07:34:27.145Z,21.29
2022-08-20T07:36:55.655Z,21.36
2022-08-20T07:39:23.723Z,21.41
2022-08-20T07:42:03.113Z,21.48
2022-08-20T07:44:31.479Z,21.55
2022-08-20T07:47:01.343Z,21.73
2022-08-20T07:49:30.887Z,21.79
2022-08-20T07:51:59.522Z,21.54
2022-08-20T07:54:28.060Z,21.77
2022-08-20T07:57:02.467Z,21.82
2022-08-20T07:59:31.007Z,21.90
2022-08-20T08:02:00.435Z,21.86
2022-08-20T08:04:28.320Z,21.97
2022-08-20T08:07:00.063Z,21.91
2022-08-20T08:09:29.663Z,21.94
2022-08-20T08:11:59.076Z,22.02
2022-08-20T08:14:30.333Z,22.11
2022-08-20T08:17:03.432Z,22.48
2022-08-20T08:19:38.741Z,22.59
2022-08-20T08:22:11.544Z,22.46
2022-08-20T08:24:40.250Z,22.43
2022-08-20T08:27:08.980Z,22.07
2022-08-20T08:29:37.235Z,22.54
2022-08-20T08:32:08.171Z,22.30
2022-08-20T08:34:38.051Z,22.39
2022-08-20T08:37:06.687Z,22.42
2022-08-20T08:39:35.255Z,22.18
2022-08-20T08:42:05.186Z,22.16
2022-08-20T08:44:40.962Z,21.98
2022-08-20T08:47:18.389Z,22.04
2022-08-20T08:49:48.218Z,22.09
2022-08-20T08:52:22.284Z,21.40
2022-08-20T08:54:54.710Z,22.01
2022-08-20T08:57:24.157Z,22.05
2022-08-20T09:00:04.432Z,22.01
2022-08-20T09:02:38.770Z,22.00
2022-08-20T09:05:18.233Z,22.03
2022-08-20T09:07:51.120Z,22.13
2022-08-20T09:10:23.247Z,22.03
2022-08-20T09:12:52.274Z,22.22
2022-08-20T09:15:21.251Z,22.31
2022-08-20T09:17:50.946Z,21.77
2022-08-20T09:20:19.477Z,22.33
2022-08-20T09:22:55.137Z,22.26
2022-08-20T09:25:23.421Z,22.53
2022-08-20T09:27:51.433Z,22.05
2022-08-20T09:30:19.830Z,22.92
2022-08-20T09:32:48.427Z,23.33
2022-08-20T09:35:17.923Z,23.60
2022-08-20T09:37:46.981Z,23.62
2022-08-20T09:40:21.015Z,23.40
2022-08-20T09:42:50.747Z,23.82
2022-08-20T09:45:19.723Z,24.26
2022-08-20T09:47:56.934Z,24.00
2022-08-20T09:50:28.191Z,24.71
2022-08-20T09:52:58.628Z,24.96
2022-08-20T09:55:33.787Z,24.84
2022-08-20T09:58:03.362Z,24.88
2022-08-20T10:00:31.799Z,24.50
2022-08-20T10:03:00.839Z,23.54
2022-08-20T10:05:30.324Z,22.74
2022-08-20T10:07:58.618Z,23.01
2022-08-20T10:10:27.167Z,22.53
2022-08-20T10:12:55.305Z,22.20
2022-08-20T10:15:23.276Z,22.43
2022-08-20T10:17:51.378Z,22.57
2022-08-20T10:20:19.759Z,22.70
2022-08-20T10:22:49.104Z,22.60
2022-08-20T10:25:18.221Z,22.24
2022-08-20T10:27:46.308Z,22.51
2022-08-20T10:30:14.900Z,22.76
2022-08-20T10:32:43.089Z,22.90
2022-08-20T10:35:11.066Z,22.96
2022-08-20T10:37:39.147Z,23.10
2022-08-20T10:40:11.040Z,23.03
2022-08-20T10:42:42.665Z,23.28
2022-08-20T10:45:11.960Z,23.40
2022-08-20T10:47:40.330Z,23.49
2022-08-20T10:50:11.014Z,23.41
2022-08-20T10:52:39.160Z,23.65
2022-08-20T10:55:10.429Z,23.51
2022-08-20T10:57:40.357Z,22.23
2022-08-20T11:00:10.304Z,23.18
2022-08-20T11:02:38.180Z,23.40
2022-08-20T11:05:07.411Z,23.63
2022-08-20T11:07:49.791Z,23.66
2022-08-20T11:10:27.745Z,23.74
2022-08-20T11:12:56.228Z,23.73
2022-08-20T11:15:24.469Z,23.73
2022-08-20T11:17:52.776Z,23.70
2022-08-20T11:20:23.649Z,23.94
2022-08-20T11:22:52.301Z,23.88
2022-08-20T11:25:20.687Z,23.87
2022-08-20T11:27:52.286Z,23.80
2022-08-20T11:30:23.352Z,23.93
2022-08-20T11:32:51.641Z,24.07
2022-08-20T11:38:10.609Z,24.32
2022-08-20T11:40:38.585Z,24.42
2022-08-20T11:43:14.615Z,24.48
2022-08-20T11:45:44.278Z,24.35
2022-08-20T11:48:12.197Z,24.08
2022-08-20T11:50:40.509Z,23.93
2022-08-20T11:53:08.814Z,24.03
2022-08-20T11:55:37.178Z,23.67
2022-08-20T11:58:08.198Z,24.09
2022-08-20T12:00:37.110Z,24.31
2022-08-20T12:03:10.099Z,24.51
2022-08-20T12:05:38.887Z,24.41
2022-08-20T12:08:08.579Z,24.42
2022-08-20T12:10:36.933Z,24.32
2022-08-20T12:13:05.513Z,24.39
2022-08-20T12:15:35.399Z,24.43
2022-08-20T12:18:07.564Z,24.36
2022-08-20T12:20:36.387Z,24.10
2022-08-20T12:23:04.602Z,23.86
2022-08-20T12:25:33.072Z,23.74
2022-08-20T12:28:02.253Z,23.57
2022-08-20T12:30:30.342Z,23.54
2022-08-20T12:33:00.530Z,23.70
2022-08-20T12:35:29.562Z,23.53
2022-08-20T12:37:59.740Z,23.60
2022-08-20T12:40:32.593Z,23.63
2022-08-20T12:43:01.623Z,23.47
2022-08-20T12:45:30.281Z,23.56
2022-08-20T12:48:06.210Z,23.51
2022-08-20T12:50:35.895Z,23.21
2022-08-20T12:53:04.711Z,23.39
2022-08-20T12:55:34.081Z,23.41
2022-08-20T12:58:04.339Z,23.26
2022-08-20T13:00:36.304Z,23.00
2022-08-20T13:03:07.787Z,22.73
2022-08-20T13:05:36.511Z,23.03
2022-08-20T13:08:07.830Z,22.71
2022-08-20T13:10:42.390Z,22.61
2022-08-20T13:13:10.459Z,23.07
2022-08-20T13:15:39.976Z,23.01
2022-08-20T13:18:10.061Z,23.03
2022-08-20T13:20:37.880Z,23.22
2022-08-20T13:23:06.209Z,23.27
2022-08-20T13:25:34.576Z,23.29
2022-08-20T13:28:05.182Z,23.51
2022-08-20T13:30:37.353Z,23.74
2022-08-20T13:33:05.598Z,23.94
2022-08-20T13:35:34.946Z,23.79
2022-08-20T13:38:03.059Z,23.92
2022-08-20T13:40:31.272Z,23.94
2022-08-20T13:43:04.493Z,23.41
2022-08-20T13:45:34.764Z,23.82
2022-08-20T13:48:02.937Z,24.11
2022-08-20T13:50:32.430Z,23.82
2022-08-20T13:53:01.823Z,24.36
2022-08-20T13:55:30.663Z,24.28
2022-08-20T13:57:59.483Z,24.30
2022-08-20T14:00:31.404Z,24.52
2022-08-20T14:03:00.718Z,23.72
2022-08-20T14:05:28.997Z,24.31
2022-08-20T14:07:57.313Z,24.49
2022-08-20T14:10:32.493Z,24.52
2022-08-20T14:13:00.914Z,24.37
2022-08-20T14:15:29.210Z,24.39
2022-08-20T14:17:58.796Z,24.91
2022-08-20T14:20:32.126Z,24.97
2022-08-20T14:23:01.790Z,25.01
2022-08-20T14:25:32.872Z,24.89
2022-08-20T14:28:10.542Z,24.57
2022-08-20T14:30:38.662Z,24.64
2022-08-20T14:33:07.175Z,24.64
2022-08-20T14:35:35.473Z,24.38
2022-08-20T14:38:05.305Z,24.69
2022-08-20T14:40:36.224Z,24.52
2022-08-20T14:43:04.471Z,24.71
2022-08-20T14:45:32.469Z,24.65
2022-08-20T14:48:00.822Z,24.55
2022-08-20T14:50:31.571Z,24.61
2022-08-20T14:53:00.000Z,24.55
2022-08-20T14:55:30.121Z,24.26
2022-08-20T14:57:59.809Z,24.01
2022-08-20T15:00:30.309Z,24.79
2022-08-20T15:02:58.901Z,24.75
2022-08-20T15:05:27.712Z,24.53
2022-08-20T15:07:59.432Z,24.75
2022-08-20T15:10:30.192Z,24.48
2022-08-20T15:13:00.320Z,24.66
2022-08-20T15:15:28.718Z,24.43
2022-08-20T15:18:00.430Z,24.72
2022-08-20T15:20:31.691Z,24.68
2022-08-20T15:23:00.205Z,24.62
2022-08-20T15:25:36.681Z,24.47
2022-08-20T15:28:09.103Z,24.41
2022-08-20T15:30:38.517Z,24.11
2022-08-20T15:33:06.590Z,23.73
2022-08-20T15:35:35.472Z,24.02
2022-08-20T15:38:03.615Z,24.03
2022-08-20T15:40:33.616Z,24.16
2022-08-20T15:43:03.577Z,24.13
2022-08-20T15:45:33.264Z,24.16
2022-08-20T15:48:09.587Z,24.27
2022-08-20T15:51:01.711Z,24.29
2022-08-20T15:53:36.612Z,23.93
2022-08-20T15:56:12.012Z,23.67
2022-08-20T15:58:52.559Z,24.06
2022-08-20T16:01:30.560Z,24.20
2022-08-20T16:04:13.468Z,24.12
2022-08-20T16:06:44.510Z,23.44
2022-08-20T16:09:26.744Z,23.12
2022-08-20T16:12:04.443Z,23.60
2022-08-20T16:14:38.139Z,23.48
2022-08-20T16:17:12.567Z,23.55
2022-08-20T16:19:51.988Z,23.56
2022-08-20T16:22:20.910Z,23.44
2022-08-20T16:24:49.622Z,23.33
2022-08-20T16:27:28.694Z,23.27
2022-08-20T16:30:02.721Z,23.33
2022-08-20T16:32:41.081Z,23.38
2022-08-20T16:35:29.838Z,23.49
2022-08-20T16:38:03.720Z,23.39
2022-08-20T16:40:35.699Z,23.07
2022-08-20T16:43:06.182Z,22.95
2022-08-20T16:45:51.118Z,22.73
2022-08-20T16:48:21.415Z,22.69
2022-08-20T16:50:57.619Z,22.58
2022-08-20T16:53:27.094Z,22.68
2022-08-20T16:55:56.511Z,22.53
2022-08-20T16:58:25.297Z,22.56
2022-08-20T17:01:07.759Z,22.64
2022-08-20T17:03:40.200Z,22.67
2022-08-20T17:06:18.124Z,22.67
2022-08-20T17:08:50.235Z,22.43
2022-08-20T17:11:26.333Z,22.60
2022-08-20T17:14:06.750Z,22.56
2022-08-20T17:16:37.042Z,22.51
2022-08-20T17:19:18.557Z,22.62
2022-08-20T17:21:50.248Z,22.51
2022-08-20T17:24:27.057Z,22.45
2022-08-20T17:27:00.849Z,22.53
2022-08-20T17:29:31.897Z,22.41
2022-08-20T17:32:01.848Z,22.45
2022-08-20T17:34:33.749Z,22.40
2022-08-20T17:37:06.373Z,22.35
2022-08-20T17:39:34.586Z,22.39
2022-08-20T17:42:08.832Z,22.29
2022-08-20T17:44:40.395Z,22.28
2022-08-20T17:47:15.171Z,21.93
2022-08-20T17:49:55.560Z,22.26
2022-08-20T17:52:36.151Z,22.23
2022-08-20T17:55:06.216Z,22.29
2022-08-20T17:57:38.309Z,22.12
2022-08-20T18:00:14.242Z,21.90
2022-08-20T18:02:42.933Z,21.76
2022-08-20T18:05:19.196Z,21.72
2022-08-20T18:08:06.729Z,21.78
2022-08-20T18:10:43.617Z,21.59
2022-08-20T18:13:18.674Z,21.57
2022-08-20T18:15:53.135Z,21.72
2022-08-20T18:18:29.474Z,21.54
2022-08-20T18:21:36.219Z,21.50
2022-08-20T18:24:10.220Z,21.50
2022-08-20T18:26:45.167Z,21.43
2022-08-20T18:29:17.068Z,21.17
2022-08-20T18:31:50.848Z,21.31
2022-08-20T18:34:22.116Z,21.28
2022-08-20T18:36:56.861Z,21.30
2022-08-20T18:39:30.842Z,21.17
2022-08-20T18:42:01.207Z,21.20
2022-08-20T18:44:35.202Z,21.19
2022-08-20T18:47:07.089Z,21.06
2022-08-20T18:49:37.868Z,21.07
2022-08-20T18:52:11.295Z,20.98
2022-08-20T18:54:44.346Z,20.97
2022-08-20T18:57:21.057Z,20.47
2022-08-20T18:59:57.246Z,20.84
2022-08-20T19:02:29.444Z,20.78
2022-08-20T19:05:02.454Z,20.62
2022-08-20T19:07:48.603Z,20.61
2022-08-20T19:10:40.819Z,20.66
2022-08-20T19:13:50.376Z,20.52
2022-08-20T19:16:22.968Z,20.24
2022-08-20T19:18:53.171Z,20.37
2022-08-20T19:21:25.059Z,20.31
2022-08-20T19:24:00.664Z,20.24
2022-08-20T19:26:32.875Z,20.29
2022-08-20T19:29:08.243Z,20.14
2022-08-20T19:31:37.129Z,20.06
2022-08-20T19:34:20.053Z,19.89
2022-08-20T19:36:56.425Z,19.76
2022-08-20T19:39:26.141Z,19.93
2022-08-20T19:42:00.580Z,19.80
2022-08-20T19:44:34.131Z,19.66
2022-08-20T19:47:04.327Z,19.53
2022-08-20T19:49:43.245Z,19.39
2022-08-20T19:52:25.833Z,19.01
2022-08-20T19:55:01.356Z,18.97
2022-08-20T19:57:32.908Z,18.97
2022-08-20T20:00:05.531Z,19.09
2022-08-20T20:02:34.924Z,19.04
2022-08-20T20:05:06.805Z,18.43
2022-08-20T20:07:39.834Z,18.90
2022-08-20T20:10:10.774Z,18.38
2022-08-20T20:12:40.951Z,18.79
2022-08-20T20:15:09.054Z,18.72
2022-08-20T20:17:37.861Z,18.56
2022-08-20T20:20:21.321Z,18.45
2022-08-20T20:22:53.199Z,18.44
2022-08-20T20:25:24.593Z,18.52
2022-08-20T20:27:57.706Z,18.48
2022-08-20T20:30:29.557Z,18.40
2022-08-20T20:33:00.322Z,18.29
2022-08-20T20:35:31.470Z,17.92
2022-08-20T20:38:02.544Z,18.19
2022-08-20T20:40:33.902Z,18.12
2022-08-20T20:43:08.288Z,18.02
2022-08-20T20:45:38.820Z,18.02
2022-08-20T20:48:18.129Z,17.97
2022-08-20T20:50:47.663Z,17.91
2022-08-20T20:53:17.117Z,17.65
2022-08-20T20:55:56.398Z,17.77
2022-08-20T20:58:25.778Z,17.84
2022-08-20T21:00:55.236Z,17.90
2022-08-20T21:03:23.218Z,18.15
2022-08-20T21:05:51.251Z,16.97
2022-08-20T21:08:20.062Z,18.01
2022-08-20T21:10:48.917Z,18.08
2022-08-20T21:13:17.119Z,18.15
2022-08-20T21:15:46.444Z,17.90
2022-08-20T21:18:14.672Z,17.82
2022-08-20T21:20:42.686Z,17.69
2022-08-20T21:23:10.852Z,17.57
2022-08-20T21:25:38.809Z,17.64
2022-08-20T21:28:06.943Z,17.62
2022-08-20T21:30:35.117Z,17.50
2022-08-20T21:33:04.835Z,17.39
2022-08-20T21:35:32.805Z,17.36
2022-08-20T21:38:00.809Z,17.28
2022-08-20T21:40:28.804Z,17.29
2022-08-20T21:42:57.407Z,17.30
2022-08-20T21:45:28.556Z,17.18
2022-08-20T21:47:57.237Z,17.21
2022-08-20T21:50:28.141Z,17.20
2022-08-20T21:52:59.659Z,16.75
2022-08-20T21:55:29.880Z,17.18
2022-08-20T21:57:58.575Z,16.90
2022-08-20T22:00:47.902Z,17.04
2022-08-20T22:03:17.159Z,16.84
2022-08-20T22:05:50.531Z,16.44
2022-08-20T22:08:19.838Z,16.94
2022-08-20T22:10:47.859Z,17.12
2022-08-20T22:13:16.313Z,17.01
2022-08-20T22:15:44.459Z,16.89
2022-08-20T22:18:12.416Z,16.84
2022-08-20T22:20:41.008Z,16.80
2022-08-20T22:23:11.078Z,16.40
2022-08-20T22:25:39.311Z,16.66
2022-08-20T22:28:07.419Z,16.63
2022-08-20T22:30:37.484Z,16.57
2022-08-20T22:33:11.940Z,16.49
2022-08-20T22:35:43.765Z,16.41
2022-08-20T22:38:13.817Z,16.46
2022-08-20T22:40:42.010Z,16.35
2022-08-20T22:43:09.914Z,15.43
2022-08-20T22:45:38.951Z,16.46
2022-08-20T22:48:08.176Z,16.40
2022-08-20T22:50:37.694Z,16.38
2022-08-20T22:53:07.397Z,16.29
2022-08-20T22:55:36.969Z,15.93
2022-08-20T22:58:05.215Z,16.20
2022-08-20T23:00:34.175Z,16.16
2022-08-20T23:03:03.352Z,15.86
2022-08-20T23:05:34.248Z,15.99
2022-08-20T23:08:02.901Z,16.05
2022-08-20T23:10:32.598Z,15.81
2022-08-20T23:13:02.168Z,16.10
2022-08-20T23:15:32.846Z,16.03
2022-08-20T23:18:04.065Z,16.00
2022-08-20T23:20:32.166Z,15.99
2022-08-20T23:23:02.537Z,16.03
2022-08-20T23:25:30.805Z,15.94
2022-08-20T23:28:04.235Z,15.91
2022-08-20T23:30:34.422Z,15.87
2022-08-20T23:33:04.755Z,15.80
2022-08-20T23:35:33.344Z,15.71
2022-08-20T23:38:01.916Z,15.42
2022-08-20T23:40:31.226Z,15.68
2022-08-20T23:43:00.145Z,15.66
2022-08-20T23:45:29.989Z,15.15
2022-08-20T23:47:59.452Z,15.65
2022-08-20T23:50:30.862Z,15.65
2022-08-20T23:52:59.892Z,15.52
2022-08-20T23:55:28.095Z,15.59
2022-08-20T23:57:56.251Z,15.58
